Time;durP1;ratioP1;P1;durP2;ratioP2;P2;SDS_P1;SDS_P2;PMS_P1;PMS_P2;Temp;Humidity;BMP_temperature;BMP_pressure;BME280_temperature;BME280_humidity;BME280_pressure;Samples;Min_cycle;Max_cycle;Signal;HPM_P1;HPM_P2
2022/10/02 00:01:56;;;;;;;4.77;2.10;;;11.10;99.90;;;;;;5094718;28;20215;-61
2022/10/02 00:04:28;;;;;;;4.93;1.97;;;11.10;99.90;;;;;;5093248;28;20459;-63
2022/10/02 00:06:59;;;;;;;4.03;1.90;;;11.10;99.90;;;;;;5093846;28;20427;-63
2022/10/02 00:09:31;;;;;;;5.83;1.73;;;11.20;99.90;;;;;;5093203;28;20418;-62
2022/10/02 00:12:00;;;;;;;7.10;1.60;;;11.20;99.90;;;;;;5093386;28;20430;-62
2022/10/02 00:14:34;;;;;;;6.60;2.10;;;11.20;99.90;;;;;;5093081;28;20551;-62
2022/10/02 00:17:03;;;;;;;5.90;2.20;;;11.20;99.90;;;;;;5093298;28;20427;-63
2022/10/02 00:19:30;;;;;;;5.77;2.37;;;11.20;99.90;;;;;;5093201;28;20446;-62
2022/10/02 00:22:21;;;;;;;5.90;1.60;;;11.20;99.90;;;;;;5093073;28;20442;-62
2022/10/02 00:24:57;;;;;;;7.87;2.53;;;11.20;99.90;;;;;;5092899;28;20235;-62
2022/10/02 00:27:47;;;;;;;3.93;1.90;;;11.30;99.90;;;;;;5097108;28;20927;-62
2022/10/02 00:30:16;;;;;;;3.87;1.90;;;11.30;99.90;;;;;;5097269;28;20857;-63
2022/10/02 00:32:55;;;;;;;5.07;1.73;;;11.30;99.90;;;;;;5097025;28;20498;-62
2022/10/02 00:35:38;;;;;;;7.57;2.27;;;11.30;99.90;;;;;;5096878;28;20482;-62
2022/10/02 00:38:14;;;;;;;4.40;1.70;;;11.40;99.90;;;;;;5097490;28;20449;-62
2022/10/02 00:41:00;;;;;;;4.83;1.63;;;11.30;99.90;;;;;;5096611;28;20928;-62
2022/10/02 00:43:33;;;;;;;3.33;1.93;;;11.30;99.90;;;;;;5096966;28;20796;-62
2022/10/02 00:46:30;;;;;;;4.43;1.60;;;11.30;99.90;;;;;;5096429;28;20477;-62
2022/10/02 00:49:12;;;;;;;7.00;2.17;;;11.40;99.90;;;;;;5079715;28;20452;-62
2022/10/02 00:51:56;;;;;;;2.20;1.77;;;11.40;99.90;;;;;;5096802;28;20425;-62
2022/10/02 00:54:44;;;;;;;5.40;1.87;;;11.40;99.90;;;;;;5096633;28;20469;-62
2022/10/02 00:57:22;;;;;;;7.90;1.90;;;11.50;99.90;;;;;;5096346;28;20430;-62
2022/10/02 01:00:01;;;;;;;8.63;2.70;;;11.50;99.90;;;;;;5096951;28;20434;-62
2022/10/02 01:03:19;;;;;;;4.10;2.40;;;11.50;99.90;;;;;;5096969;28;20445;-62
2022/10/02 01:05:47;;;;;;;4.50;2.13;;;11.50;99.90;;;;;;5014208;28;20454;-62
2022/10/02 01:08:14;;;;;;;8.30;2.00;;;11.60;99.90;;;;;;5014206;28;20449;-62
2022/10/02 01:10:41;;;;;;;8.50;2.53;;;11.60;99.90;;;;;;5060968;28;20446;-62
2022/10/02 01:13:08;;;;;;;5.43;2.17;;;11.60;99.90;;;;;;5096516;28;20442;-62
2022/10/02 01:15:38;;;;;;;8.17;2.27;;;11.60;99.90;;;;;;5096500;28;20485;-62
2022/10/02 01:18:07;;;;;;;9.13;2.20;;;11.70;99.90;;;;;;5096502;28;20442;-63
2022/10/02 01:20:37;;;;;;;6.83;2.40;;;11.60;99.90;;;;;;5096345;28;20442;-62
2022/10/02 01:23:19;;;;;;;6.30;1.97;;;11.60;99.90;;;;;;5096600;28;20434;-61
2022/10/02 01:25:47;;;;;;;6.63;2.00;;;11.60;99.90;;;;;;5097275;28;20458;-61
2022/10/02 01:28:14;;;;;;;7.13;2.43;;;11.50;99.90;;;;;;5097563;28;20442;-61
2022/10/02 01:30:44;;;;;;;10.20;2.67;;;11.50;99.90;;;;;;5097436;28;20445;-61
2022/10/02 01:33:12;;;;;;;3.87;1.90;;;11.40;99.90;;;;;;5097343;28;20453;-62
2022/10/02 01:35:39;;;;;;;7.83;2.23;;;11.30;99.90;;;;;;5097251;28;20485;-62
2022/10/02 01:38:10;;;;;;;6.40;2.77;;;11.20;99.90;;;;;;5096233;28;20445;-62
2022/10/02 01:40:39;;;;;;;6.37;2.17;;;11.20;99.90;;;;;;5096878;28;20423;-62
2022/10/02 01:43:10;;;;;;;6.40;2.30;;;11.10;99.90;;;;;;5097252;28;20446;-62
2022/10/02 01:45:52;;;;;;;7.97;2.80;;;11.10;99.90;;;;;;5096047;28;20854;-62
2022/10/02 01:48:26;;;;;;;10.00;2.70;;;11.10;99.90;;;;;;5096603;28;20435;-62
2022/10/02 01:51:07;;;;;;;5.50;2.30;;;11.10;99.90;;;;;;5097216;28;20444;-62
2022/10/02 01:53:42;;;;;;;6.73;2.40;;;11.10;99.90;;;;;;5096895;28;20423;-62
2022/10/02 01:56:17;;;;;;;6.63;2.63;;;11.10;99.90;;;;;;5098214;28;20485;-62
2022/10/02 01:58:54;;;;;;;6.23;2.50;;;11.10;99.90;;;;;;5095911;28;20422;-63
2022/10/02 02:01:37;;;;;;;6.47;2.73;;;11.10;99.90;;;;;;5096882;28;20930;-62
2022/10/02 02:04:12;;;;;;;7.47;2.90;;;11.10;99.90;;;;;;5095170;28;20426;-63
2022/10/02 02:06:49;;;;;;;8.87;3.00;;;11.00;99.90;;;;;;5095549;28;20422;-62
2022/10/02 02:09:20;;;;;;;6.37;2.60;;;11.00;99.90;;;;;;5096146;28;20450;-62
2022/10/02 02:11:53;;;;;;;11.23;3.17;;;11.00;99.90;;;;;;5095544;28;20536;-62
2022/10/02 02:14:27;;;;;;;9.60;3.63;;;11.00;99.90;;;;;;5095478;28;20462;-62
2022/10/02 02:17:00;;;;;;;11.67;4.07;;;11.00;99.90;;;;;;5095460;28;20466;-62
2022/10/02 02:19:33;;;;;;;10.30;3.73;;;11.00;99.90;;;;;;5095565;28;20430;-62
2022/10/02 02:22:03;;;;;;;8.33;3.70;;;11.00;99.90;;;;;;5095379;28;20764;-62
2022/10/02 02:24:35;;;;;;;12.70;4.47;;;11.00;99.90;;;;;;5095272;28;20458;-62
2022/10/02 02:27:05;;;;;;;13.07;3.90;;;11.00;99.90;;;;;;5095202;28;20192;-62
2022/10/02 02:29:37;;;;;;;8.23;4.22;;;11.00;99.90;;;;;;5095141;28;20446;-63
2022/10/02 02:32:08;;;;;;;14.00;5.00;;;11.00;99.90;;;;;;5095117;28;20185;-63
2022/10/02 02:34:40;;;;;;;8.97;3.63;;;11.00;99.90;;;;;;5094904;28;20465;-62
2022/10/02 02:37:12;;;;;;;12.77;4.20;;;11.00;99.90;;;;;;5094876;28;20504;-62
2022/10/02 02:39:44;;;;;;;10.80;4.20;;;11.00;99.90;;;;;;5095003;28;20263;-61
2022/10/02 02:42:14;;;;;;;8.57;3.87;;;10.90;99.90;;;;;;5094973;28;20466;-61
2022/10/02 02:44:48;;;;;;;9.02;4.40;;;10.90;99.90;;;;;;5094647;28;20527;-62
2022/10/02 02:47:20;;;;;;;10.53;3.50;;;10.80;99.90;;;;;;5094809;28;20192;-62
2022/10/02 02:49:54;;;;;;;11.40;4.87;;;10.80;99.90;;;;;;5093551;28;20435;-62
2022/10/02 02:52:26;;;;;;;8.15;3.97;;;10.70;99.90;;;;;;5096195;28;20434;-62
2022/10/02 02:54:58;;;;;;;11.45;4.40;;;10.70;99.90;;;;;;5095643;28;20730;-62
2022/10/02 02:57:29;;;;;;;13.73;4.43;;;10.70;99.90;;;;;;5094923;28;20644;-62
2022/10/02 03:00:01;;;;;;;14.88;5.78;;;10.70;99.90;;;;;;5095074;28;20215;-62
2022/10/02 03:02:28;;;;;;;13.35;6.00;;;10.70;99.90;;;;;;5095025;28;20189;-62
2022/10/02 03:04:54;;;;;;;15.77;5.88;;;10.70;99.90;;;;;;5094954;28;20566;-62
2022/10/02 03:07:21;;;;;;;17.97;6.93;;;10.70;99.90;;;;;;5094731;28;20204;-62
2022/10/02 03:10:00;;;;;;;14.50;7.25;;;10.70;99.90;;;;;;5094610;28;20442;-62
2022/10/02 03:12:40;;;;;;;12.63;7.30;;;10.80;99.90;;;;;;5094623;28;20188;-62
2022/10/02 03:15:35;;;;;;;19.90;7.47;;;10.80;99.90;;;;;;5094557;28;20462;-62
2022/10/02 03:18:22;;;;;;;18.00;8.40;;;10.80;99.90;;;;;;5094309;28;20426;-61
2022/10/02 03:21:00;;;;;;;19.53;9.67;;;10.80;99.90;;;;;;5093762;28;20995;-61
2022/10/02 03:23:34;;;;;;;24.47;10.10;;;10.80;99.90;;;;;;5094285;28;20433;-61
2022/10/02 03:26:08;;;;;;;12.77;10.23;;;10.80;99.90;;;;;;5094396;28;20480;-62
2022/10/02 03:28:38;;;;;;;14.98;8.98;;;10.80;99.90;;;;;;5094363;28;20188;-62
2022/10/02 03:31:09;;;;;;;15.97;10.00;;;10.80;99.90;;;;;;5094271;28;20201;-63
2022/10/02 03:33:37;;;;;;;19.47;8.73;;;10.80;99.90;;;;;;5094335;28;20457;-62
2022/10/02 03:36:05;;;;;;;18.30;10.90;;;10.80;99.90;;;;;;5093953;28;20474;-63
2022/10/02 03:38:33;;;;;;;18.23;11.70;;;10.90;99.90;;;;;;5094084;28;20200;-63
2022/10/02 03:41:00;;;;;;;14.93;11.80;;;11.00;99.90;;;;;;5094217;28;20200;-63
2022/10/02 03:43:29;;;;;;;23.03;11.97;;;11.10;99.90;;;;;;5094616;28;20446;-63
2022/10/02 03:45:56;;;;;;;18.30;11.13;;;11.10;99.90;;;;;;5094578;28;20470;-62
2022/10/02 03:48:24;;;;;;;25.63;11.90;;;11.20;99.90;;;;;;5094061;28;20438;-63
2022/10/02 03:50:51;;;;;;;19.17;11.90;;;11.20;99.90;;;;;;5093821;28;20788;-63
2022/10/02 03:53:19;;;;;;;17.57;12.00;;;11.30;99.90;;;;;;5093695;28;20438;-63
2022/10/02 03:55:50;;;;;;;18.50;11.10;;;11.40;99.90;;;;;;5093301;28;20481;-63
2022/10/02 03:58:18;;;;;;;27.03;12.40;;;11.40;99.90;;;;;;5093215;28;20895;-62
2022/10/02 04:00:54;;;;;;;18.20;11.20;;;11.40;99.90;;;;;;5092823;28;20442;-62
2022/10/02 04:03:27;;;;;;;19.23;10.37;;;11.40;99.90;;;;;;5093613;28;20430;-62
2022/10/02 04:05:59;;;;;;;17.27;10.60;;;11.40;99.90;;;;;;5093476;28;20462;-62
2022/10/02 04:10:38;;;;;;;16.17;10.30;;;11.50;99.90;;;;;;4968566;28;20963;-61
2022/10/02 04:13:16;;;;;;;17.90;9.00;;;11.50;99.90;;;;;;4969040;28;20431;-62
2022/10/02 04:15:56;;;;;;;15.60;9.80;;;11.50;99.90;;;;;;4968570;28;20471;-63
2022/10/02 04:18:26;;;;;;;15.10;9.33;;;11.50;99.90;;;;;;4968627;28;20432;-61
2022/10/02 04:20:56;;;;;;;14.63;8.90;;;11.50;99.90;;;;;;4968263;28;20460;-63
2022/10/02 04:23:29;;;;;;;16.80;8.30;;;11.60;99.90;;;;;;4967075;28;20448;-63
2022/10/02 04:26:04;;;;;;;14.17;7.57;;;11.60;99.90;;;;;;4966397;28;20813;-63
2022/10/02 04:28:38;;;;;;;16.93;8.50;;;11.60;99.90;;;;;;4966005;28;20472;-62
2022/10/02 04:31:10;;;;;;;12.63;8.40;;;11.60;99.90;;;;;;4953853;28;20469;-63
2022/10/02 04:33:37;;;;;;;11.20;7.23;;;11.70;99.90;;;;;;4967820;28;20455;-62
2022/10/02 04:36:13;;;;;;;12.80;8.57;;;11.70;99.90;;;;;;4951882;28;20473;-62
2022/10/02 04:39:12;;;;;;;10.60;8.03;;;11.70;99.90;;;;;;4948952;28;20448;-62
2022/10/02 04:41:57;;;;;;;17.40;8.70;;;11.70;99.90;;;;;;4928779;28;20449;-62
2022/10/02 04:44:39;;;;;;;13.67;8.27;;;11.70;99.90;;;;;;4948862;28;20469;-63
2022/10/02 04:47:30;;;;;;;16.90;9.20;;;11.80;99.90;;;;;;4954511;28;20437;-64
2022/10/02 04:50:21;;;;;;;13.30;9.67;;;11.80;99.90;;;;;;4966082;28;21005;-62
2022/10/02 04:53:11;;;;;;;12.53;9.27;;;11.80;99.90;;;;;;4967783;28;20428;-62
2022/10/02 04:55:51;;;;;;;20.43;10.03;;;11.90;99.90;;;;;;4967592;28;20467;-63
2022/10/02 04:58:42;;;;;;;17.30;10.80;;;11.90;99.90;;;;;;4967835;28;20815;-63
2022/10/02 05:01:20;;;;;;;18.03;10.27;;;11.90;99.90;;;;;;4957862;28;20433;-63
2022/10/02 05:04:04;;;;;;;20.13;11.80;;;11.80;99.90;;;;;;4967583;28;20436;-62
2022/10/02 05:06:47;;;;;;;16.23;11.90;;;11.80;99.90;;;;;;4959067;28;20845;-63
2022/10/02 05:09:21;;;;;;;21.13;11.97;;;11.70;99.90;;;;;;4948248;28;20481;-63
2022/10/02 05:12:01;;;;;;;21.40;10.83;;;11.70;99.90;;;;;;4948398;28;20807;-63
2022/10/02 05:14:44;;;;;;;20.50;13.07;;;11.60;99.90;;;;;;4948873;28;20552;-63
2022/10/02 05:17:32;;;;;;;17.77;12.00;;;11.60;99.90;;;;;;4948648;28;20440;-62
2022/10/02 05:20:17;;;;;;;19.30;11.60;;;11.50;99.90;;;;;;4964406;28;20437;-64
2022/10/02 05:22:56;;;;;;;20.50;13.23;;;11.40;99.90;;;;;;4955040;28;20444;-63
2022/10/02 05:25:48;;;;;;;25.33;13.40;;;11.40;99.90;;;;;;4954748;28;20543;-63
2022/10/02 05:28:32;;;;;;;17.33;12.20;;;11.30;99.90;;;;;;4954711;28;20425;-63
2022/10/02 05:31:13;;;;;;;22.40;13.03;;;11.30;99.90;;;;;;4954652;28;20440;-63
2022/10/02 05:34:00;;;;;;;20.13;13.20;;;11.20;99.90;;;;;;4946816;28;20448;-63
2022/10/02 05:36:48;;;;;;;20.60;13.80;;;11.20;99.90;;;;;;4954558;28;20452;-64
2022/10/02 05:39:20;;;;;;;21.37;12.70;;;11.10;99.90;;;;;;4954786;28;20441;-62
2022/10/02 05:41:55;;;;;;;24.23;14.77;;;11.10;99.90;;;;;;4935400;29;20441;-63
2022/10/02 05:44:27;;;;;;;24.63;14.30;;;11.00;99.90;;;;;;4935318;29;20945;-64
2022/10/02 05:47:01;;;;;;;24.97;14.17;;;11.00;99.90;;;;;;4953641;29;20445;-65
2022/10/02 05:49:32;;;;;;;29.87;15.77;;;11.00;99.90;;;;;;4939280;29;20510;-63
2022/10/02 05:52:02;;;;;;;22.20;15.13;;;11.00;99.90;;;;;;4954473;28;20445;-63
2022/10/02 05:54:41;;;;;;;27.67;16.37;;;11.10;99.90;;;;;;4953526;28;20841;-62
2022/10/02 05:57:16;;;;;;;26.03;15.47;;;11.10;99.90;;;;;;4953700;28;20437;-64
2022/10/02 05:59:50;;;;;;;27.83;17.03;;;11.10;99.90;;;;;;4953937;28;20451;-63
2022/10/02 06:02:27;;;;;;;27.00;15.43;;;11.10;99.90;;;;;;4949210;28;20967;-64
2022/10/02 06:05:01;;;;;;;23.43;14.60;;;11.20;99.90;;;;;;4953153;28;20481;-64
2022/10/02 06:07:28;;;;;;;30.23;15.63;;;11.20;99.90;;;;;;4951523;29;20933;-63
2022/10/02 06:10:00;;;;;;;26.97;15.87;;;11.20;99.90;;;;;;4960852;28;20492;-64
2022/10/02 06:12:32;;;;;;;23.00;16.23;;;11.20;99.90;;;;;;4951516;28;20457;-62
2022/10/02 06:15:02;;;;;;;28.23;14.60;;;11.30;99.90;;;;;;4942611;29;20485;-62
2022/10/02 06:17:34;;;;;;;26.10;14.80;;;11.40;99.90;;;;;;4951485;29;20445;-63
2022/10/02 06:20:05;;;;;;;26.50;15.23;;;11.50;99.90;;;;;;4939869;29;20773;-62
2022/10/02 06:22:41;;;;;;;25.07;15.60;;;11.60;99.90;;;;;;4950846;29;20437;-63
2022/10/02 06:25:16;;;;;;;23.90;13.90;;;11.70;99.90;;;;;;4953445;28;20468;-63
2022/10/02 06:27:48;;;;;;;21.87;14.17;;;11.70;99.90;;;;;;4953586;28;20590;-61
2022/10/02 06:30:17;;;;;;;23.77;14.97;;;11.70;99.90;;;;;;4953846;28;20469;-63
2022/10/02 06:32:52;;;;;;;19.03;12.07;;;11.70;99.90;;;;;;4953068;28;20453;-63
2022/10/02 06:35:34;;;;;;;20.07;13.60;;;11.70;99.90;;;;;;4953725;28;20475;-63
2022/10/02 06:38:12;;;;;;;23.43;12.80;;;11.70;99.90;;;;;;4948968;28;20444;-63
2022/10/02 06:41:02;;;;;;;19.83;12.77;;;11.70;99.90;;;;;;4934608;29;20444;-64
2022/10/02 06:43:58;;;;;;;22.07;13.40;;;11.80;99.90;;;;;;4934184;29;20444;-67
2022/10/02 06:46:33;;;;;;;17.57;12.80;;;11.90;99.90;;;;;;4934245;29;20442;-63
2022/10/02 06:49:09;;;;;;;20.30;11.00;;;12.00;99.90;;;;;;4934050;29;20446;-61
2022/10/02 06:51:46;;;;;;;19.50;10.67;;;12.10;99.90;;;;;;4934533;29;20519;-63
2022/10/02 06:54:28;;;;;;;13.20;8.83;;;12.30;99.90;;;;;;4947088;29;20483;-63
2022/10/02 06:57:14;;;;;;;15.50;9.00;;;12.30;99.90;;;;;;4946688;29;20506;-62
2022/10/02 07:00:01;;;;;;;13.33;7.97;;;12.30;99.90;;;;;;4953294;28;20905;-62
2022/10/02 07:02:53;;;;;;;12.60;8.33;;;12.40;99.90;;;;;;4948946;28;20441;-62
2022/10/02 07:05:47;;;;;;;11.20;8.10;;;12.50;99.90;;;;;;4938329;29;20845;-62
2022/10/02 07:08:26;;;;;;;10.43;6.90;;;12.60;99.90;;;;;;4933685;29;20445;-62
2022/10/02 07:11:00;;;;;;;14.73;7.77;;;12.80;99.90;;;;;;4933858;29;20473;-63
2022/10/02 07:13:40;;;;;;;12.43;7.60;;;12.90;99.90;;;;;;4933939;29;20495;-63
2022/10/02 07:16:18;;;;;;;9.00;6.73;;;13.00;99.90;;;;;;4949126;29;20468;-63
2022/10/02 07:18:58;;;;;;;10.87;6.70;;;13.00;99.90;;;;;;4952475;28;20433;-62
2022/10/02 07:21:37;;;;;;;12.37;6.90;;;13.00;99.90;;;;;;4953140;28;20440;-64
2022/10/02 07:24:15;;;;;;;15.77;8.40;;;13.10;99.90;;;;;;4952728;28;20433;-63
2022/10/02 07:26:49;;;;;;;11.30;6.77;;;13.10;99.90;;;;;;4953144;28;20433;-62
2022/10/02 07:29:47;;;;;;;12.97;6.40;;;13.10;99.90;;;;;;4953484;28;20445;-62
2022/10/02 07:32:37;;;;;;;13.87;6.90;;;13.20;99.90;;;;;;4952942;28;20460;-62
2022/10/02 07:35:29;;;;;;;13.73;6.83;;;13.20;99.90;;;;;;4952891;28;20464;-63
2022/10/02 07:38:11;;;;;;;15.23;6.80;;;13.30;99.90;;;;;;4952094;28;20443;-63
2022/10/02 07:40:50;;;;;;;10.10;5.50;;;13.30;99.90;;;;;;4952711;28;20793;-62
2022/10/02 07:43:32;;;;;;;13.23;6.00;;;13.40;99.90;;;;;;4943276;28;20487;-63
2022/10/02 07:46:14;;;;;;;17.17;5.97;;;13.40;99.90;;;;;;4951312;29;20469;-61
2022/10/02 07:48:51;;;;;;;13.80;5.90;;;13.50;99.90;;;;;;4952680;28;20935;-63
2022/10/02 07:51:48;;;;;;;11.37;5.20;;;13.50;99.90;;;;;;4952469;28;20476;-63
2022/10/02 07:54:54;;;;;;;12.67;5.37;;;13.50;99.90;;;;;;4953020;28;20473;-63
2022/10/02 07:57:31;;;;;;;10.33;4.80;;;13.50;99.90;;;;;;4954035;28;20429;-63
2022/10/02 08:00:03;;;;;;;11.10;5.17;;;13.50;99.90;;;;;;4952437;28;20437;-64
2022/10/02 08:02:36;;;;;;;14.63;5.03;;;13.50;99.90;;;;;;4948036;28;20532;-63
2022/10/02 08:05:08;;;;;;;9.97;5.43;;;13.60;99.90;;;;;;4933807;29;20888;-63
2022/10/02 08:07:34;;;;;;;10.07;4.17;;;13.80;99.90;;;;;;4934204;29;20434;-62
2022/10/02 08:10:07;;;;;;;10.93;4.10;;;13.90;99.90;;;;;;4932786;29;20489;-62
2022/10/02 08:12:38;;;;;;;10.97;4.63;;;14.00;99.90;;;;;;4941098;29;20449;-64
2022/10/02 08:15:14;;;;;;;8.90;4.57;;;14.20;99.90;;;;;;4944168;28;20549;-63
2022/10/02 08:17:48;;;;;;;9.57;4.23;;;14.20;99.90;;;;;;4941362;29;20929;-62
2022/10/02 08:20:22;;;;;;;8.00;3.90;;;14.40;99.90;;;;;;4939206;28;20441;-63
2022/10/02 08:22:53;;;;;;;13.20;4.20;;;14.60;99.90;;;;;;4933354;29;20838;-62
2022/10/02 08:25:26;;;;;;;9.73;4.10;;;14.70;99.90;;;;;;4942110;29;20991;-62
2022/10/02 08:27:59;;;;;;;5.53;4.13;;;14.70;99.90;;;;;;4952641;28;20548;-63
2022/10/02 08:30:26;;;;;;;13.60;5.67;;;14.70;99.90;;;;;;4941429;28;20481;-63
2022/10/02 08:32:53;;;;;;;7.83;4.47;;;14.70;99.90;;;;;;4940681;29;20448;-62
2022/10/02 08:35:21;;;;;;;12.47;4.77;;;14.70;99.90;;;;;;4954148;28;20477;-62
2022/10/02 08:38:13;;;;;;;10.63;4.67;;;14.80;99.90;;;;;;4953080;28;20462;-62
2022/10/02 08:41:17;;;;;;;13.23;4.73;;;14.80;99.90;;;;;;4954280;28;20440;-63
2022/10/02 08:44:16;;;;;;;12.97;5.00;;;15.00;99.90;;;;;;4927739;28;20459;-63
2022/10/02 08:47:16;;;;;;;10.53;4.20;;;15.10;99.90;;;;;;4958049;28;20436;-63
2022/10/02 08:50:13;;;;;;;5.97;3.83;;;15.20;99.90;;;;;;4943424;29;20440;-62
2022/10/02 08:53:17;;;;;;;8.93;4.37;;;15.40;99.90;;;;;;4950148;28;20467;-62
2022/10/02 08:56:03;;;;;;;10.17;4.20;;;15.40;99.90;;;;;;4957595;28;20463;-61
2022/10/02 08:58:56;;;;;;;12.13;4.47;;;15.50;99.90;;;;;;4961635;28;20449;-62
2022/10/02 09:01:42;;;;;;;9.57;3.87;;;15.50;99.90;;;;;;4959588;28;20433;-61
2022/10/02 09:04:53;;;;;;;8.10;3.90;;;15.50;99.90;;;;;;4952082;28;20940;-60
2022/10/02 09:07:55;;;;;;;9.17;3.50;;;15.50;99.90;;;;;;4941385;28;20971;-61
2022/10/02 09:10:52;;;;;;;10.00;4.10;;;15.50;99.90;;;;;;4941811;29;20495;-62
2022/10/02 09:13:55;;;;;;;7.80;3.40;;;15.50;99.90;;;;;;4957667;28;20444;-63
2022/10/02 09:16:29;;;;;;;13.17;4.40;;;15.60;99.90;;;;;;4957381;28;20424;-61
2022/10/02 09:19:02;;;;;;;8.07;3.33;;;15.70;99.90;;;;;;4956403;28;20444;-62
2022/10/02 09:21:58;;;;;;;6.67;3.53;;;15.80;99.90;;;;;;4957246;28;20516;-62
2022/10/02 09:24:58;;;;;;;10.20;4.10;;;16.00;99.90;;;;;;4955982;28;20479;-62
2022/10/02 09:27:51;;;;;;;9.13;3.10;;;15.80;99.90;;;;;;4955660;28;20437;-62
2022/10/02 09:30:38;;;;;;;6.10;3.80;;;15.80;99.90;;;;;;4954972;28;20480;-60
2022/10/02 09:33:32;;;;;;;7.47;3.30;;;15.80;99.90;;;;;;4955523;28;20433;-63
2022/10/02 09:36:13;;;;;;;8.77;3.40;;;16.00;99.90;;;;;;4955695;28;20476;-61
2022/10/02 09:39:19;;;;;;;5.63;3.50;;;16.10;99.90;;;;;;4955320;28;20437;-61
2022/10/02 09:42:23;;;;;;;6.10;2.43;;;16.20;99.90;;;;;;4938077;28;20786;-63
2022/10/02 09:45:36;;;;;;;9.87;3.10;;;16.10;99.90;;;;;;4936051;29;20995;-61
2022/10/02 09:48:44;;;;;;;9.23;2.87;;;16.00;99.90;;;;;;4877527;29;20460;-65
2022/10/02 09:51:40;;;;;;;7.60;3.83;;;16.00;99.90;;;;;;4877561;29;20476;-65
2022/10/02 09:54:39;;;;;;;8.33;2.87;;;16.10;99.90;;;;;;4931648;29;20465;-60
2022/10/02 09:57:33;;;;;;;7.70;3.50;;;16.10;99.90;;;;;;4935568;29;20524;-61
2022/10/02 10:00:23;;;;;;;5.37;2.47;;;16.00;99.90;;;;;;4935176;29;20503;-63
2022/10/02 10:03:18;;;;;;;8.90;4.03;;;16.00;99.90;;;;;;4935534;28;20452;-62
2022/10/02 10:06:18;;;;;;;12.23;3.10;;;16.00;99.90;;;;;;4945584;29;20473;-62
2022/10/02 10:09:04;;;;;;;7.37;2.07;;;16.10;99.90;;;;;;4941698;28;20457;-62
2022/10/02 10:12:09;;;;;;;5.47;2.30;;;16.10;99.30;;;;;;4954306;28;20473;-62
2022/10/02 10:15:07;;;;;;;11.40;2.07;;;16.10;98.70;;;;;;4954492;28;20475;-61
2022/10/02 10:18:14;;;;;;;6.80;2.60;;;16.20;98.20;;;;;;4953640;28;20950;-62
2022/10/02 10:21:19;;;;;;;10.70;2.63;;;16.50;97.60;;;;;;4915434;28;20460;-62
2022/10/02 10:24:20;;;;;;;8.10;2.07;;;16.90;96.60;;;;;;4950392;28;20450;-61
2022/10/02 10:27:19;;;;;;;9.83;2.77;;;17.20;94.50;;;;;;4935334;29;20445;-62
2022/10/02 10:30:03;;;;;;;4.87;1.90;;;17.40;92.20;;;;;;4933128;29;20461;-63
2022/10/02 10:33:16;;;;;;;10.90;1.77;;;17.50;91.10;;;;;;4953341;28;20448;-61
2022/10/02 10:38:31;;;;;;;6.17;1.70;;;17.40;90.40;;;;;;4954332;28;20480;-62
2022/10/02 10:39:20;;;;;;;5.13;1.87;;;17.30;88.50;;;;;;4953324;28;21023;-62
2022/10/02 10:42:13;;;;;;;5.70;1.87;;;17.20;89.40;;;;;;4953715;28;20444;-61
2022/10/02 10:45:23;;;;;;;9.67;2.60;;;17.10;88.80;;;;;;4938344;28;20466;-61
2022/10/02 10:48:07;;;;;;;8.33;2.80;;;17.00;88.90;;;;;;4900521;29;20453;-63
2022/10/02 10:50:54;;;;;;;4.90;2.37;;;16.90;89.40;;;;;;4935562;29;20476;-62
2022/10/02 10:53:51;;;;;;;8.30;2.07;;;16.80;89.20;;;;;;4934768;29;20442;-63
2022/10/02 10:56:35;;;;;;;11.10;2.10;;;16.60;89.60;;;;;;4934208;29;20481;-62
2022/10/02 10:59:30;;;;;;;4.67;2.03;;;16.50;90.10;;;;;;4935534;29;20814;-61
2022/10/02 11:02:13;;;;;;;6.93;2.07;;;16.40;90.40;;;;;;4934357;29;20435;-61
2022/10/02 11:05:02;;;;;;;7.97;2.10;;;16.60;90.70;;;;;;4934223;29;20473;-61
2022/10/02 11:07:45;;;;;;;7.73;3.53;;;16.80;90.60;;;;;;4934413;29;20434;-60
2022/10/02 11:10:28;;;;;;;6.70;2.03;;;17.10;90.30;;;;;;4933764;29;20480;-61
2022/10/02 11:13:08;;;;;;;6.60;2.20;;;17.40;88.90;;;;;;4943412;29;20449;-61
2022/10/02 11:16:12;;;;;;;5.03;2.10;;;17.70;87.90;;;;;;4952826;28;20473;-61
2022/10/02 11:18:57;;;;;;;5.10;1.90;;;18.00;86.00;;;;;;4950271;28;20534;-62
2022/10/02 11:21:43;;;;;;;7.67;2.40;;;18.10;83.20;;;;;;4951285;28;20804;-60
2022/10/02 11:24:29;;;;;;;5.23;2.30;;;18.10;81.80;;;;;;4953269;28;20481;-61
2022/10/02 11:27:12;;;;;;;4.47;1.70;;;17.90;82.10;;;;;;4952972;28;20437;-59
2022/10/02 11:30:21;;;;;;;6.77;1.87;;;17.70;82.00;;;;;;4954153;28;20436;-61
2022/10/02 11:33:00;;;;;;;7.10;2.57;;;17.40;82.60;;;;;;4952795;28;20444;-63
2022/10/02 11:35:52;;;;;;;7.50;3.00;;;16.80;88.60;;;;;;4952836;28;20469;-62
2022/10/02 11:38:34;;;;;;;10.87;2.97;;;15.80;94.30;;;;;;4953002;28;20425;-63
2022/10/02 11:41:31;;;;;;;6.27;1.87;;;14.90;99.90;;;;;;4953539;28;20455;-62
2022/10/02 11:44:11;;;;;;;6.37;1.97;;;14.30;99.90;;;;;;4931727;28;20453;-62
2022/10/02 11:47:08;;;;;;;4.97;2.30;;;13.80;99.90;;;;;;4953770;28;20440;-62
2022/10/02 11:49:57;;;;;;;3.37;1.93;;;13.50;99.90;;;;;;4953230;28;20429;-61
2022/10/02 11:53:04;;;;;;;5.77;2.30;;;13.40;99.90;;;;;;4952989;28;20547;-61
2022/10/02 11:55:45;;;;;;;4.77;2.00;;;13.30;99.90;;;;;;4953537;28;20464;-61
2022/10/02 11:58:21;;;;;;;6.63;2.20;;;13.30;99.90;;;;;;4952944;28;20940;-61
2022/10/02 12:01:16;;;;;;;2.80;2.03;;;13.30;99.90;;;;;;4953167;28;20901;-61
2022/10/02 12:04:04;;;;;;;8.97;2.17;;;13.30;99.90;;;;;;4953590;28;20444;-62
2022/10/02 12:06:51;;;;;;;4.77;2.00;;;13.30;99.90;;;;;;4952866;28;20517;-62
2022/10/02 12:09:32;;;;;;;8.57;3.17;;;13.30;99.90;;;;;;4952722;28;20460;-61
2022/10/02 12:12:13;;;;;;;7.43;2.30;;;13.30;99.90;;;;;;4951667;28;20972;-60
2022/10/02 12:14:48;;;;;;;4.13;3.07;;;13.50;99.90;;;;;;4952212;28;20476;-61
2022/10/02 12:17:38;;;;;;;4.33;2.17;;;13.60;99.90;;;;;;4952444;28;20436;-61
2022/10/02 12:28:59;;;;;;;4.67;1.97;;;14.10;99.90;;;;;;4951784;29;20408;-61
2022/10/02 12:31:35;;;;;;;4.90;2.50;;;14.20;99.90;;;;;;4954487;28;20471;-66
2022/10/02 12:34:25;;;;;;;9.03;1.70;;;14.40;99.90;;;;;;4955449;28;20528;-61
2022/10/02 12:36:58;;;;;;;3.57;1.80;;;14.80;99.90;;;;;;4955756;28;20429;-61
2022/10/02 12:39:37;;;;;;;4.47;2.27;;;15.10;99.90;;;;;;4956267;28;20433;-61
2022/10/02 12:42:17;;;;;;;4.93;2.03;;;15.30;99.90;;;;;;4956331;28;20460;-61
2022/10/02 12:45:19;;;;;;;7.07;2.23;;;15.30;99.90;;;;;;4957482;28;20560;-60
2022/10/02 12:48:10;;;;;;;4.50;2.20;;;15.20;99.90;;;;;;4950384;29;20452;-60
2022/10/02 12:50:53;;;;;;;6.10;2.10;;;15.20;99.90;;;;;;4955612;28;20449;-61
2022/10/02 12:53:48;;;;;;;7.20;2.27;;;15.10;99.90;;;;;;4955926;28;20432;-61
2022/10/02 12:56:45;;;;;;;5.50;2.73;;;15.10;99.90;;;;;;4953929;28;20576;-61
2022/10/02 12:59:20;;;;;;;5.23;2.20;;;15.00;99.90;;;;;;4955279;28;20459;-60
2022/10/02 13:02:32;;;;;;;9.63;2.73;;;14.80;99.90;;;;;;4955619;28;20432;-61
2022/10/02 13:05:39;;;;;;;10.73;3.00;;;14.70;99.90;;;;;;4956853;28;20475;-61
2022/10/02 13:08:28;;;;;;;7.03;2.67;;;14.60;99.90;;;;;;4955551;28;20942;-61
2022/10/02 13:11:04;;;;;;;7.70;2.73;;;14.50;99.90;;;;;;4955926;28;20425;-62
2022/10/02 13:13:56;;;;;;;3.83;2.23;;;14.50;99.90;;;;;;4956838;28;20443;-61
2022/10/02 13:16:32;;;;;;;3.30;2.37;;;14.50;99.90;;;;;;4956232;28;20535;-60
2022/10/02 13:19:12;;;;;;;3.63;2.17;;;14.60;99.90;;;;;;4958741;28;20440;-61
2022/10/02 13:21:50;;;;;;;7.77;2.57;;;14.60;99.90;;;;;;4960759;28;20452;-60
2022/10/02 13:24:43;;;;;;;5.70;2.03;;;14.70;99.90;;;;;;4959210;28;20468;-60
2022/10/02 13:27:22;;;;;;;5.50;2.17;;;14.70;99.90;;;;;;4959467;28;20437;-61
2022/10/02 13:30:04;;;;;;;3.53;2.13;;;14.70;99.90;;;;;;4957372;28;20908;-61
2022/10/02 13:32:48;;;;;;;8.23;2.27;;;14.70;99.90;;;;;;4956474;28;20476;-61
2022/10/02 13:35:31;;;;;;;5.17;2.80;;;14.60;99.90;;;;;;4954956;28;20892;-63
2022/10/02 13:38:13;;;;;;;4.73;2.70;;;14.60;99.90;;;;;;4955185;28;20475;-61
2022/10/02 13:40:50;;;;;;;2.80;1.70;;;14.50;99.90;;;;;;4954978;28;20433;-60
2022/10/02 13:43:48;;;;;;;3.83;1.90;;;14.50;99.90;;;;;;4954685;28;20428;-61
2022/10/02 13:46:25;;;;;;;3.57;2.00;;;14.40;99.90;;;;;;4943172;28;20483;-61
2022/10/02 13:49:04;;;;;;;7.37;3.83;;;14.40;99.90;;;;;;4955469;28;20440;-62
2022/10/02 13:51:52;;;;;;;3.63;1.83;;;14.40;99.90;;;;;;4954505;28;20495;-61
2022/10/02 13:54:51;;;;;;;3.17;2.00;;;14.50;99.90;;;;;;4954408;28;20469;-62
2022/10/02 13:57:36;;;;;;;5.00;2.03;;;14.60;99.90;;;;;;4939615;28;20453;-62
2022/10/02 14:00:10;;;;;;;8.13;1.77;;;14.70;99.90;;;;;;4955148;28;20775;-59
2022/10/02 14:02:48;;;;;;;3.93;1.87;;;14.80;99.90;;;;;;4955827;28;20429;-61
2022/10/02 14:05:27;;;;;;;3.60;1.60;;;14.80;99.90;;;;;;4955135;28;20551;-61